Time;durP1;ratioP1;P1;durP2;ratioP2;P2;SDS_P1;SDS_P2;PMS_P1;PMS_P2;Temp;Humidity;BMP_temperature;BMP_pressure;BME280_temperature;BME280_humidity;BME280_pressure;Samples;Min_cycle;Max_cycle;Signal;HPM_P1;HPM_P2
2021/04/07 00:01:02;;;;;;;8.77;4.67;;;1.6;99.9;;;;;;;;;
2021/04/07 00:02:02;;;;;;;6.9;4.53;;;1.6;99.9;;;;;;;;;
2021/04/07 00:03:02;;;;;;;6.97;5.17;;;1.6;99.9;;;;;;;;;
2021/04/07 00:03:16;;;;;;;5.6;4.5;;;1.6;99.9;;;;;;;;;
2021/04/07 00:04:02;;;;;;;5.6;4.5;;;1.6;99.9;;;;;;;;;
2021/04/07 00:04:18;;;;;;;7.63;5;;;1.7;99.9;;;;;;;;;
2021/04/07 00:05:02;;;;;;;7.63;5;;;1.7;99.9;;;;;;;;;
2021/04/07 00:05:14;;;;;;;7.63;5;;;1.7;99.9;;;;;;;;;
2021/04/07 00:05:30;;;;;;;5.63;4.77;;;1.6;99.9;;;;;;;;;
2021/04/07 00:06:02;;;;;;;5.63;4.77;;;1.6;99.9;;;;;;;;;
2021/04/07 00:06:15;;;;;;;5.63;4.77;;;1.6;99.9;;;;;;;;;
2021/04/07 00:06:31;;;;;;;6.53;4.7;;;1.7;99.9;;;;;;;;;
2021/04/07 00:07:02;;;;;;;6.53;4.7;;;1.7;99.9;;;;;;;;;
2021/04/07 00:07:17;;;;;;;7.53;4.43;;;1.7;99.9;;;;;;;;;
2021/04/07 00:07:27;;;;;;;7.53;4.43;;;1.7;99.9;;;;;;;;;
2021/04/07 00:07:43;;;;;;;7.53;4.43;;;1.7;99.9;;;;;;;;;
2021/04/07 00:08:02;;;;;;;7.53;4.43;;;1.7;99.9;;;;;;;;;
2021/04/07 00:08:16;;;;;;;7.53;4.43;;;1.7;99.9;;;;;;;;;
2021/04/07 00:08:31;;;;;;;7.8;4.73;;;1.7;99.9;;;;;;;;;
2021/04/07 00:08:49;;;;;;;7.8;4.73;;;1.7;99.9;;;;;;;;;
2021/04/07 00:09:02;;;;;;;7.8;4.73;;;1.7;99.9;;;;;;;;;
2021/04/07 00:09:15;;;;;;;7.8;4.73;;;1.7;99.9;;;;;;;;;
2021/04/07 00:09:30;;;;;;;7.53;4.37;;;1.7;99.9;;;;;;;;;
2021/04/07 00:09:40;;;;;;;7.53;4.37;;;1.7;99.9;;;;;;;;;
2021/04/07 00:09:56;;;;;;;7.53;4.37;;;1.7;99.9;;;;;;;;;
2021/04/07 00:10:02;;;;;;;7.53;4.37;;;1.7;99.9;;;;;;;;;
2021/04/07 00:10:16;;;;;;;7.53;4.37;;;1.7;99.9;;;;;;;;;
2021/04/07 00:10:26;;;;;;;8.8;4.3;;;1.6;99.9;;;;;;;;;
2021/04/07 00:10:42;;;;;;;8.8;4.3;;;1.6;99.9;;;;;;;;;
2021/04/07 00:11:02;;;;;;;8.8;4.3;;;1.6;99.9;;;;;;;;;
2021/04/07 00:11:02;;;;;;;8.8;4.3;;;1.6;99.9;;;;;;;;;
2021/04/07 00:11:12;;;;;;;8.8;4.3;;;1.6;99.9;;;;;;;;;
2021/04/07 00:11:28;;;;;;;8.47;4.4;;;1.6;99.9;;;;;;;;;
2021/04/07 00:11:43;;;;;;;8.47;4.4;;;1.6;99.9;;;;;;;;;
2021/04/07 00:11:53;;;;;;;8.47;4.4;;;1.6;99.9;;;;;;;;;
2021/04/07 00:12:02;;;;;;;8.47;4.4;;;1.6;99.9;;;;;;;;;
2021/04/07 00:12:09;;;;;;;8.47;4.4;;;1.6;99.9;;;;;;;;;
2021/04/07 00:12:19;;;;;;;7.43;4.53;;;1.6;99.9;;;;;;;;;
2021/04/07 00:12:29;;;;;;;7.43;4.53;;;1.6;99.9;;;;;;;;;
2021/04/07 00:12:39;;;;;;;7.43;4.53;;;1.6;99.9;;;;;;;;;
2021/04/07 00:12:55;;;;;;;7.43;4.53;;;1.6;99.9;;;;;;;;;
2021/04/07 00:13:02;;;;;;;7.43;4.53;;;1.6;99.9;;;;;;;;;
2021/04/07 00:13:15;;;;;;;7.43;4.53;;;1.6;99.9;;;;;;;;;
2021/04/07 00:13:15;;;;;;;7.43;4.53;;;1.6;99.9;;;;;;;;;
2021/04/07 00:13:25;;;;;;;6.97;3.57;;;1.6;99.9;;;;;;;;;
2021/04/07 00:13:41;;;;;;;6.97;3.57;;;1.6;99.9;;;;;;;;;
2021/04/07 00:13:56;;;;;;;6.97;3.57;;;1.6;99.9;;;;;;;;;
2021/04/07 00:14:02;;;;;;;6.97;3.57;;;1.6;99.9;;;;;;;;;
2021/04/07 00:14:06;;;;;;;6.97;3.57;;;1.6;99.9;;;;;;;;;
2021/04/07 00:14:18;;;;;;;6.97;3.57;;;1.6;99.9;;;;;;;;;
2021/04/07 00:14:32;;;;;;;8.53;4.3;;;1.5;99.9;;;;;;;;;
2021/04/07 00:14:42;;;;;;;8.53;4.3;;;1.5;99.9;;;;;;;;;
2021/04/07 00:14:52;;;;;;;8.53;4.3;;;1.5;99.9;;;;;;;;;
2021/04/07 00:15:01;;;;;;;8.53;4.3;;;1.5;99.9;;;;;;;;;
2021/04/07 00:15:08;;;;;;;8.53;4.3;;;1.5;99.9;;;;;;;;;
2021/04/07 00:15:13;;;;;;;8.53;4.3;;;1.5;99.9;;;;;;;;;
2021/04/07 00:15:28;;;;;;;9.4;4.13;;;1.5;99.9;;;;;;;;;
2021/04/07 00:15:39;;;;;;;9.4;4.13;;;1.5;99.9;;;;;;;;;
2021/04/07 00:15:54;;;;;;;9.4;4.13;;;1.5;99.9;;;;;;;;;
2021/04/07 00:16:02;;;;;;;9.4;4.13;;;1.5;99.9;;;;;;;;;
2021/04/07 00:16:09;;;;;;;9.4;4.13;;;1.5;99.9;;;;;;;;;
2021/04/07 00:16:15;;;;;;;9.4;4.13;;;1.5;99.9;;;;;;;;;
2021/04/07 00:16:30;;;;;;;13.67;3.77;;;1.4;99.9;;;;;;;;;
2021/04/07 00:16:45;;;;;;;13.67;3.77;;;1.4;99.9;;;;;;;;;
2021/04/07 00:16:55;;;;;;;13.67;3.77;;;1.4;99.9;;;;;;;;;
2021/04/07 00:17:02;;;;;;;13.67;3.77;;;1.4;99.9;;;;;;;;;
2021/04/07 00:17:06;;;;;;;13.67;3.77;;;1.4;99.9;;;;;;;;;
2021/04/07 00:17:16;;;;;;;13.67;3.77;;;1.4;99.9;;;;;;;;;
2021/04/07 00:17:26;;;;;;;7.37;4.6;;;1.5;99.9;;;;;;;;;
2021/04/07 00:17:41;;;;;;;7.37;4.6;;;1.5;99.9;;;;;;;;;
2021/04/07 00:17:52;;;;;;;7.37;4.6;;;1.5;99.9;;;;;;;;;
2021/04/07 00:18:02;;;;;;;7.37;4.6;;;1.5;99.9;;;;;;;;;
2021/04/07 00:18:07;;;;;;;7.37;4.6;;;1.5;99.9;;;;;;;;;
2021/04/07 00:18:17;;;;;;;7.37;4.6;;;1.5;99.9;;;;;;;;;
2021/04/07 00:18:27;;;;;;;4.33;3.93;;;1.5;99.9;;;;;;;;;
2021/04/07 00:18:43;;;;;;;4.33;3.93;;;1.5;99.9;;;;;;;;;
2021/04/07 00:18:58;;;;;;;4.33;3.93;;;1.5;99.9;;;;;;;;;
2021/04/07 00:19:02;;;;;;;4.33;3.93;;;1.5;99.9;;;;;;;;;
2021/04/07 00:19:09;;;;;;;4.33;3.93;;;1.5;99.9;;;;;;;;;
2021/04/07 00:19:14;;;;;;;4.33;3.93;;;1.5;99.9;;;;;;;;;
2021/04/07 00:19:29;;;;;;;7.5;4.23;;;1.5;99.9;;;;;;;;;
2021/04/07 00:19:39;;;;;;;7.5;4.23;;;1.5;99.9;;;;;;;;;
2021/04/07 00:19:55;;;;;;;7.5;4.23;;;1.5;99.9;;;;;;;;;
2021/04/07 00:20:01;;;;;;;7.5;4.23;;;1.5;99.9;;;;;;;;;
2021/04/07 00:20:05;;;;;;;7.5;4.23;;;1.5;99.9;;;;;;;;;
2021/04/07 00:20:15;;;;;;;7.5;4.23;;;1.5;99.9;;;;;;;;;
2021/04/07 00:20:30;;;;;;;7.6;4.47;;;1.5;99.9;;;;;;;;;
2021/04/07 00:20:41;;;;;;;7.6;4.47;;;1.5;99.9;;;;;;;;;
2021/04/07 00:20:56;;;;;;;7.6;4.47;;;1.5;99.9;;;;;;;;;
2021/04/07 00:21:02;;;;;;;7.6;4.47;;;1.5;99.9;;;;;;;;;
2021/04/07 00:21:11;;;;;;;7.6;4.47;;;1.5;99.9;;;;;;;;;
2021/04/07 00:21:17;;;;;;;7.6;4.47;;;1.5;99.9;;;;;;;;;
2021/04/07 00:21:27;;;;;;;7.13;4.37;;;1.6;99.9;;;;;;;;;
2021/04/07 00:21:42;;;;;;;7.13;4.37;;;1.6;99.9;;;;;;;;;
2021/04/07 00:21:52;;;;;;;7.13;4.37;;;1.6;99.9;;;;;;;;;
2021/04/07 00:22:02;;;;;;;7.13;4.37;;;1.6;99.9;;;;;;;;;
2021/04/07 00:22:08;;;;;;;7.13;4.37;;;1.6;99.9;;;;;;;;;
2021/04/07 00:22:18;;;;;;;7.13;4.37;;;1.6;99.9;;;;;;;;;
2021/04/07 00:22:28;;;;;;;6.53;4.37;;;1.5;99.9;;;;;;;;;
2021/04/07 00:22:44;;;;;;;6.53;4.37;;;1.5;99.9;;;;;;;;;
2021/04/07 00:22:54;;;;;;;6.53;4.37;;;1.5;99.9;;;;;;;;;
2021/04/07 00:23:01;;;;;;;6.53;4.37;;;1.5;99.9;;;;;;;;;
2021/04/07 00:23:09;;;;;;;6.53;4.37;;;1.5;99.9;;;;;;;;;
2021/04/07 00:23:14;;;;;;;6.53;4.37;;;1.5;99.9;;;;;;;;;
2021/04/07 00:23:30;;;;;;;8.23;4.97;;;1.5;99.9;;;;;;;;;
2021/04/07 00:23:40;;;;;;;8.23;4.97;;;1.5;99.9;;;;;;;;;
2021/04/07 00:23:55;;;;;;;8.23;4.97;;;1.5;99.9;;;;;;;;;
2021/04/07 00:24:02;;;;;;;8.23;4.97;;;1.5;99.9;;;;;;;;;
2021/04/07 00:24:05;;;;;;;8.23;4.97;;;1.5;99.9;;;;;;;;;
2021/04/07 00:24:16;;;;;;;8.23;4.97;;;1.5;99.9;;;;;;;;;
2021/04/07 00:24:31;;;;;;;8.33;5;;;1.5;99.9;;;;;;;;;
2021/04/07 00:24:41;;;;;;;8.33;5;;;1.5;99.9;;;;;;;;;
2021/04/07 00:24:57;;;;;;;8.33;5;;;1.5;99.9;;;;;;;;;
2021/04/07 00:25:01;;;;;;;8.33;5;;;1.5;99.9;;;;;;;;;
2021/04/07 00:25:07;;;;;;;8.33;5;;;1.5;99.9;;;;;;;;;
2021/04/07 00:25:12;;;;;;;8.33;5;;;1.5;99.9;;;;;;;;;
2021/04/07 00:25:27;;;;;;;6.3;4.33;;;1.5;99.9;;;;;;;;;
2021/04/07 00:25:43;;;;;;;6.3;4.33;;;1.5;99.9;;;;;;;;;
2021/04/07 00:25:53;;;;;;;6.3;4.33;;;1.5;99.9;;;;;;;;;
2021/04/07 00:26:02;;;;;;;6.3;4.33;;;1.5;99.9;;;;;;;;;
2021/04/07 00:26:08;;;;;;;6.3;4.33;;;1.5;99.9;;;;;;;;;
2021/04/07 00:26:13;;;;;;;6.3;4.33;;;1.5;99.9;;;;;;;;;
2021/04/07 00:26:29;;;;;;;7.37;4.87;;;1.5;99.9;;;;;;;;;
2021/04/07 00:26:44;;;;;;;7.37;4.87;;;1.5;99.9;;;;;;;;;
2021/04/07 00:26:54;;;;;;;7.37;4.87;;;1.5;99.9;;;;;;;;;
2021/04/07 00:27:08;;;;;;;7.37;4.87;;;1.5;99.9;;;;;;;;;
2021/04/07 00:27:12;;;;;;;7.37;4.87;;;1.5;99.9;;;;;;;;;
2021/04/07 00:27:17;;;;;;;7.37;4.87;;;1.5;99.9;;;;;;;;;
2021/04/07 00:27:26;;;;;;;9.07;4.73;;;1.5;99.9;;;;;;;;;
2021/04/07 00:27:42;;;;;;;9.07;4.73;;;1.5;99.9;;;;;;;;;
2021/04/07 00:27:57;;;;;;;9.07;4.73;;;1.5;99.9;;;;;;;;;
2021/04/07 00:28:04;;;;;;;9.07;4.73;;;1.5;99.9;;;;;;;;;
2021/04/07 00:28:07;;;;;;;9.07;4.73;;;1.5;99.9;;;;;;;;;
2021/04/07 00:28:19;;;;;;;9.07;4.73;;;1.5;99.9;;;;;;;;;
2021/04/07 00:28:27;;;;;;;5.93;4.2;;;1.5;99.9;;;;;;;;;
2021/04/07 00:28:42;;;;;;;5.93;4.2;;;1.5;99.9;;;;;;;;;
2021/04/07 00:28:57;;;;;;;5.93;4.2;;;1.5;99.9;;;;;;;;;
2021/04/07 00:29:02;;;;;;;5.93;4.2;;;1.5;99.9;;;;;;;;;
2021/04/07 00:29:08;;;;;;;5.93;4.2;;;1.5;99.9;;;;;;;;;
2021/04/07 00:29:18;;;;;;;5.93;4.2;;;1.5;99.9;;;;;;;;;
2021/04/07 00:29:28;;;;;;;6.83;5.17;;;1.5;99.9;;;;;;;;;
2021/04/07 00:29:38;;;;;;;6.83;5.17;;;1.5;99.9;;;;;;;;;
2021/04/07 00:29:54;;;;;;;6.83;5.17;;;1.5;99.9;;;;;;;;;
2021/04/07 00:30:01;;;;;;;6.83;5.17;;;1.5;99.9;;;;;;;;;
2021/04/07 00:30:09;;;;;;;6.83;5.17;;;1.5;99.9;;;;;;;;;
2021/04/07 00:30:14;;;;;;;6.83;5.17;;;1.5;99.9;;;;;;;;;
2021/04/07 00:30:29;;;;;;;8.33;4.97;;;1.6;99.9;;;;;;;;;
2021/04/07 00:30:40;;;;;;;8.33;4.97;;;1.6;99.9;;;;;;;;;
2021/04/07 00:30:57;;;;;;;8.33;4.97;;;1.6;99.9;;;;;;;;;
2021/04/07 00:31:04;;;;;;;8.33;4.97;;;1.6;99.9;;;;;;;;;
2021/04/07 00:31:10;;;;;;;8.33;4.97;;;1.6;99.9;;;;;;;;;
2021/04/07 00:31:15;;;;;;;8.33;4.97;;;1.6;99.9;;;;;;;;;
2021/04/07 00:31:31;;;;;;;9.8;5.73;;;1.5;99.9;;;;;;;;;
2021/04/07 00:31:41;;;;;;;9.8;5.73;;;1.5;99.9;;;;;;;;;
2021/04/07 00:31:51;;;;;;;9.8;5.73;;;1.5;99.9;;;;;;;;;
2021/04/07 00:32:02;;;;;;;9.8;5.73;;;1.5;99.9;;;;;;;;;
2021/04/07 00:32:07;;;;;;;9.8;5.73;;;1.5;99.9;;;;;;;;;
2021/04/07 00:32:17;;;;;;;9.8;5.73;;;1.5;99.9;;;;;;;;;
2021/04/07 00:32:27;;;;;;;7.47;5.1;;;1.5;99.9;;;;;;;;;
2021/04/07 00:32:43;;;;;;;7.47;5.1;;;1.5;99.9;;;;;;;;;
2021/04/07 00:32:53;;;;;;;7.47;5.1;;;1.5;99.9;;;;;;;;;
2021/04/07 00:33:02;;;;;;;7.47;5.1;;;1.5;99.9;;;;;;;;;
2021/04/07 00:33:08;;;;;;;7.47;5.1;;;1.5;99.9;;;;;;;;;
2021/04/07 00:33:18;;;;;;;7.47;5.1;;;1.5;99.9;;;;;;;;;
2021/04/07 00:33:29;;;;;;;9.97;5.53;;;1.6;99.9;;;;;;;;;
2021/04/07 00:33:44;;;;;;;9.97;5.53;;;1.6;99.9;;;;;;;;;
2021/04/07 00:33:54;;;;;;;9.97;5.53;;;1.6;99.9;;;;;;;;;
2021/04/07 00:34:02;;;;;;;9.97;5.53;;;1.6;99.9;;;;;;;;;
2021/04/07 00:34:04;;;;;;;9.97;5.53;;;1.6;99.9;;;;;;;;;
2021/04/07 00:34:15;;;;;;;9.97;5.53;;;1.6;99.9;;;;;;;;;
2021/04/07 00:34:32;;;;;;;12.23;5.87;;;1.5;99.9;;;;;;;;;
2021/04/07 00:34:40;;;;;;;12.23;5.87;;;1.5;99.9;;;;;;;;;
2021/04/07 00:34:56;;;;;;;12.23;5.87;;;1.5;99.9;;;;;;;;;
2021/04/07 00:35:01;;;;;;;12.23;5.87;;;1.5;99.9;;;;;;;;;
2021/04/07 00:35:06;;;;;;;12.23;5.87;;;1.5;99.9;;;;;;;;;
2021/04/07 00:35:16;;;;;;;12.23;5.87;;;1.5;99.9;;;;;;;;;
2021/04/07 00:35:32;;;;;;;14.7;5.67;;;1.5;99.9;;;;;;;;;
2021/04/07 00:35:42;;;;;;;14.7;5.67;;;1.5;99.9;;;;;;;;;
2021/04/07 00:35:57;;;;;;;14.7;5.67;;;1.5;99.9;;;;;;;;;
2021/04/07 00:36:02;;;;;;;14.7;5.67;;;1.5;99.9;;;;;;;;;
2021/04/07 00:36:07;;;;;;;14.7;5.67;;;1.5;99.9;;;;;;;;;
2021/04/07 00:36:12;;;;;;;14.7;5.67;;;1.5;99.9;;;;;;;;;
2021/04/07 00:36:28;;;;;;;9.5;6;;;1.5;99.9;;;;;;;;;
2021/04/07 00:36:43;;;;;;;9.5;6;;;1.5;99.9;;;;;;;;;
2021/04/07 00:36:53;;;;;;;9.5;6;;;1.5;99.9;;;;;;;;;
2021/04/07 00:37:02;;;;;;;9.5;6;;;1.5;99.9;;;;;;;;;
2021/04/07 00:37:09;;;;;;;9.5;6;;;1.5;99.9;;;;;;;;;
2021/04/07 00:37:14;;;;;;;9.5;6;;;1.5;99.9;;;;;;;;;
2021/04/07 00:37:29;;;;;;;9.2;5.4;;;1.5;99.9;;;;;;;;;
2021/04/07 00:37:45;;;;;;;9.2;5.4;;;1.5;99.9;;;;;;;;;
2021/04/07 00:37:55;;;;;;;9.2;5.4;;;1.5;99.9;;;;;;;;;
2021/04/07 00:38:02;;;;;;;9.2;5.4;;;1.5;99.9;;;;;;;;;
2021/04/07 00:38:10;;;;;;;9.2;5.4;;;1.5;99.9;;;;;;;;;
2021/04/07 00:38:15;;;;;;;9.2;5.4;;;1.5;99.9;;;;;;;;;
2021/04/07 00:38:26;;;;;;;8.13;5.3;;;1.5;99.9;;;;;;;;;
2021/04/07 00:38:41;;;;;;;8.13;5.3;;;1.5;99.9;;;;;;;;;
2021/04/07 00:38:56;;;;;;;8.13;5.3;;;1.5;99.9;;;;;;;;;
2021/04/07 00:39:02;;;;;;;8.13;5.3;;;1.5;99.9;;;;;;;;;
2021/04/07 00:39:07;;;;;;;8.13;5.3;;;1.5;99.9;;;;;;;;;
2021/04/07 00:39:17;;;;;;;8.13;5.3;;;1.5;99.9;;;;;;;;;
2021/04/07 00:39:27;;;;;;;8.43;5.4;;;1.4;99.9;;;;;;;;;
2021/04/07 00:39:42;;;;;;;8.43;5.4;;;1.4;99.9;;;;;;;;;
2021/04/07 00:39:58;;;;;;;8.43;5.4;;;1.4;99.9;;;;;;;;;
2021/04/07 00:40:01;;;;;;;8.43;5.4;;;1.4;99.9;;;;;;;;;
2021/04/07 00:40:08;;;;;;;8.43;5.4;;;1.4;99.9;;;;;;;;;
2021/04/07 00:40:13;;;;;;;8.43;5.4;;;1.4;99.9;;;;;;;;;
2021/04/07 00:40:28;;;;;;;6.87;5.17;;;1.4;99.9;;;;;;;;;
2021/04/07 00:40:39;;;;;;;6.87;5.17;;;1.4;99.9;;;;;;;;;
2021/04/07 00:40:54;;;;;;;6.87;5.17;;;1.4;99.9;;;;;;;;;
2021/04/07 00:41:02;;;;;;;6.87;5.17;;;1.4;99.9;;;;;;;;;
2021/04/07 00:41:10;;;;;;;6.87;5.17;;;1.4;99.9;;;;;;;;;
2021/04/07 00:41:15;;;;;;;6.87;5.17;;;1.4;99.9;;;;;;;;;
2021/04/07 00:41:30;;;;;;;10.4;5.43;;;1.4;99.9;;;;;;;;;
2021/04/07 00:41:40;;;;;;;10.4;5.43;;;1.4;99.9;;;;;;;;;
2021/04/07 00:41:56;;;;;;;10.4;5.43;;;1.4;99.9;;;;;;;;;
2021/04/07 00:42:01;;;;;;;10.4;5.43;;;1.4;99.9;;;;;;;;;
2021/04/07 00:42:11;;;;;;;10.4;5.43;;;1.4;99.9;;;;;;;;;
2021/04/07 00:42:16;;;;;;;10.4;5.43;;;1.4;99.9;;;;;;;;;
2021/04/07 00:42:26;;;;;;;10.4;5.43;;;1.4;99.9;;;;;;;;;
2021/04/07 00:42:42;;;;;;;6.83;4.63;;;1.4;99.9;;;;;;;;;
2021/04/07 00:42:52;;;;;;;6.83;4.63;;;1.4;99.9;;;;;;;;;
2021/04/07 00:43:02;;;;;;;6.83;4.63;;;1.4;99.9;;;;;;;;;
2021/04/07 00:43:07;;;;;;;6.83;4.63;;;1.4;99.9;;;;;;;;;
2021/04/07 00:43:12;;;;;;;6.83;4.63;;;1.4;99.9;;;;;;;;;
2021/04/07 00:43:28;;;;;;;6.93;4.8;;;1.4;99.9;;;;;;;;;
2021/04/07 00:43:43;;;;;;;6.93;4.8;;;1.4;99.9;;;;;;;;;
2021/04/07 00:43:53;;;;;;;6.93;4.8;;;1.4;99.9;;;;;;;;;
2021/04/07 00:44:02;;;;;;;6.93;4.8;;;1.4;99.9;;;;;;;;;
2021/04/07 00:44:14;;;;;;;6.93;4.8;;;1.4;99.9;;;;;;;;;
2021/04/07 00:44:14;;;;;;;6.93;4.8;;;1.4;99.9;;;;;;;;;
2021/04/07 00:44:29;;;;;;;11.6;6.2;;;1.5;99.9;;;;;;;;;
2021/04/07 00:44:39;;;;;;;11.6;6.2;;;1.5;99.9;;;;;;;;;
2021/04/07 00:44:55;;;;;;;11.6;6.2;;;1.5;99.9;;;;;;;;;
2021/04/07 00:45:02;;;;;;;11.6;6.2;;;1.5;99.9;;;;;;;;;
2021/04/07 00:45:05;;;;;;;11.6;6.2;;;1.5;99.9;;;;;;;;;
2021/04/07 00:45:15;;;;;;;11.6;6.2;;;1.5;99.9;;;;;;;;;
2021/04/07 00:45:25;;;;;;;11.6;6.2;;;1.5;99.9;;;;;;;;;
2021/04/07 00:45:41;;;;;;;9.1;4.83;;;1.5;99.9;;;;;;;;;
2021/04/07 00:45:56;;;;;;;9.1;4.83;;;1.5;99.9;;;;;;;;;
2021/04/07 00:46:02;;;;;;;9.1;4.83;;;1.5;99.9;;;;;;;;;
2021/04/07 00:46:06;;;;;;;9.1;4.83;;;1.5;99.9;;;;;;;;;
2021/04/07 00:46:17;;;;;;;9.1;4.83;;;1.5;99.9;;;;;;;;;
2021/04/07 00:46:27;;;;;;;9.1;4.83;;;1.5;99.9;;;;;;;;;
2021/04/07 00:46:42;;;;;;;9.8;5.57;;;1.6;99.9;;;;;;;;;
2021/04/07 00:46:53;;;;;;;9.8;5.57;;;1.6;99.9;;;;;;;;;
2021/04/07 00:47:01;;;;;;;9.8;5.57;;;1.6;99.9;;;;;;;;;
2021/04/07 00:47:08;;;;;;;9.8;5.57;;;1.6;99.9;;;;;;;;;
2021/04/07 00:47:13;;;;;;;9.8;5.57;;;1.6;99.9;;;;;;;;;
2021/04/07 00:47:28;;;;;;;9.77;5.93;;;1.5;99.9;;;;;;;;;
2021/04/07 00:47:39;;;;;;;9.77;5.93;;;1.5;99.9;;;;;;;;;
2021/04/07 00:47:54;;;;;;;9.77;5.93;;;1.5;99.9;;;;;;;;;
2021/04/07 00:48:02;;;;;;;9.77;5.93;;;1.5;99.9;;;;;;;;;
2021/04/07 00:48:09;;;;;;;9.77;5.93;;;1.5;99.9;;;;;;;;;
2021/04/07 00:48:14;;;;;;;9.77;5.93;;;1.5;99.9;;;;;;;;;
2021/04/07 00:48:30;;;;;;;7.33;4.83;;;1.5;99.9;;;;;;;;;
2021/04/07 00:48:45;;;;;;;7.33;4.83;;;1.5;99.9;;;;;;;;;
2021/04/07 00:48:55;;;;;;;7.33;4.83;;;1.5;99.9;;;;;;;;;
2021/04/07 00:49:02;;;;;;;7.33;4.83;;;1.5;99.9;;;;;;;;;
2021/04/07 00:49:06;;;;;;;7.33;4.83;;;1.5;99.9;;;;;;;;;
2021/04/07 00:49:16;;;;;;;7.33;4.83;;;1.5;99.9;;;;;;;;;
2021/04/07 00:49:26;;;;;;;7.33;4.83;;;1.5;99.9;;;;;;;;;
2021/04/07 00:49:41;;;;;;;8.03;4.67;;;1.4;99.9;;;;;;;;;
2021/04/07 00:49:52;;;;;;;8.03;4.67;;;1.4;99.9;;;;;;;;;
2021/04/07 00:50:02;;;;;;;8.03;4.67;;;1.4;99.9;;;;;;;;;
2021/04/07 00:50:07;;;;;;;8.03;4.67;;;1.4;99.9;;;;;;;;;
2021/04/07 00:50:17;;;;;;;8.03;4.67;;;1.4;99.9;;;;;;;;;
2021/04/07 00:50:28;;;;;;;8.03;4.67;;;1.4;99.9;;;;;;;;;
2021/04/07 00:50:43;;;;;;;8.73;5.67;;;1.4;99.9;;;;;;;;;
2021/04/07 00:50:58;;;;;;;8.73;5.67;;;1.4;99.9;;;;;;;;;
2021/04/07 00:51:02;;;;;;;8.73;5.67;;;1.4;99.9;;;;;;;;;
2021/04/07 00:51:09;;;;;;;8.73;5.67;;;1.4;99.9;;;;;;;;;
2021/04/07 00:51:14;;;;;;;8.73;5.67;;;1.4;99.9;;;;;;;;;
2021/04/07 00:51:29;;;;;;;8.73;5.67;;;1.4;99.9;;;;;;;;;
2021/04/07 00:51:39;;;;;;;9.37;5.9;;;1.4;99.9;;;;;;;;;
2021/04/07 00:51:55;;;;;;;9.37;5.9;;;1.4;99.9;;;;;;;;;
2021/04/07 00:52:01;;;;;;;9.37;5.9;;;1.4;99.9;;;;;;;;;
2021/04/07 00:52:05;;;;;;;9.37;5.9;;;1.4;99.9;;;;;;;;;
2021/04/07 00:52:15;;;;;;;9.37;5.9;;;1.4;99.9;;;;;;;;;
2021/04/07 00:52:30;;;;;;;7.77;5.1;;;1.3;99.9;;;;;;;;;
2021/04/07 00:52:41;;;;;;;7.77;5.1;;;1.3;99.9;;;;;;;;;
2021/04/07 00:52:56;;;;;;;7.77;5.1;;;1.3;99.9;;;;;;;;;
2021/04/07 00:53:02;;;;;;;7.77;5.1;;;1.3;99.9;;;;;;;;;
2021/04/07 00:53:11;;;;;;;7.77;5.1;;;1.3;99.9;;;;;;;;;
2021/04/07 00:53:16;;;;;;;7.77;5.1;;;1.3;99.9;;;;;;;;;
2021/04/07 00:53:27;;;;;;;7.77;5.1;;;1.3;99.9;;;;;;;;;
2021/04/07 00:53:42;;;;;;;10.47;5.47;;;1.3;99.9;;;;;;;;;
2021/04/07 00:53:52;;;;;;;10.47;5.47;;;1.3;99.9;;;;;;;;;
2021/04/07 00:54:02;;;;;;;10.47;5.47;;;1.3;99.9;;;;;;;;;
2021/04/07 00:54:08;;;;;;;10.47;5.47;;;1.3;99.9;;;;;;;;;
2021/04/07 00:54:13;;;;;;;10.47;5.47;;;1.3;99.9;;;;;;;;;
2021/04/07 00:54:28;;;;;;;10.47;5.47;;;1.3;99.9;;;;;;;;;
2021/04/07 00:54:44;;;;;;;9.4;5.23;;;1.3;99.9;;;;;;;;;
2021/04/07 00:54:54;;;;;;;9.4;5.23;;;1.3;99.9;;;;;;;;;
2021/04/07 00:55:02;;;;;;;9.4;5.23;;;1.3;99.9;;;;;;;;;
2021/04/07 00:55:09;;;;;;;9.4;5.23;;;1.3;99.9;;;;;;;;;
2021/04/07 00:55:14;;;;;;;9.4;5.23;;;1.3;99.9;;;;;;;;;
2021/04/07 00:55:30;;;;;;;9.4;5.23;;;1.3;99.9;;;;;;;;;
2021/04/07 00:55:40;;;;;;;9.77;5.37;;;1.3;99.9;;;;;;;;;
2021/04/07 00:55:55;;;;;;;9.77;5.37;;;1.3;99.9;;;;;;;;;
2021/04/07 00:56:02;;;;;;;9.77;5.37;;;1.3;99.9;;;;;;;;;
2021/04/07 00:56:05;;;;;;;9.77;5.37;;;1.3;99.9;;;;;;;;;
2021/04/07 00:56:16;;;;;;;9.77;5.37;;;1.3;99.9;;;;;;;;;
2021/04/07 00:56:26;;;;;;;9.77;5.37;;;1.3;99.9;;;;;;;;;
2021/04/07 00:56:41;;;;;;;8.5;5.53;;;1.3;99.9;;;;;;;;;
2021/04/07 00:56:57;;;;;;;8.5;5.53;;;1.3;99.9;;;;;;;;;
2021/04/07 00:57:01;;;;;;;8.5;5.53;;;1.3;99.9;;;;;;;;;
2021/04/07 00:57:07;;;;;;;8.5;5.53;;;1.3;99.9;;;;;;;;;
2021/04/07 00:57:12;;;;;;;8.5;5.53;;;1.3;99.9;;;;;;;;;
2021/04/07 00:57:27;;;;;;;8.5;5.53;;;1.3;99.9;;;;;;;;;
2021/04/07 00:57:43;;;;;;;8.87;5.37;;;1.3;99.9;;;;;;;;;
2021/04/07 00:57:53;;;;;;;8.87;5.37;;;1.3;99.9;;;;;;;;;
2021/04/07 00:58:02;;;;;;;8.87;5.37;;;1.3;99.9;;;;;;;;;
2021/04/07 00:58:08;;;;;;;8.87;5.37;;;1.3;99.9;;;;;;;;;
2021/04/07 00:58:13;;;;;;;8.87;5.37;;;1.3;99.9;;;;;;;;;
2021/04/07 00:58:29;;;;;;;8.87;5.37;;;1.3;99.9;;;;;;;;;
2021/04/07 00:58:39;;;;;;;8.33;5.77;;;1.3;99.9;;;;;;;;;
2021/04/07 00:58:54;;;;;;;8.33;5.77;;;1.3;99.9;;;;;;;;;
2021/04/07 00:59:02;;;;;;;8.33;5.77;;;1.3;99.9;;;;;;;;;
2021/04/07 00:59:10;;;;;;;8.33;5.77;;;1.3;99.9;;;;;;;;;
2021/04/07 00:59:15;;;;;;;8.33;5.77;;;1.3;99.9;;;;;;;;;
2021/04/07 00:59:25;;;;;;;8.33;5.77;;;1.3;99.9;;;;;;;;;
2021/04/07 00:59:40;;;;;;;8.1;6.7;;;1.3;99.9;;;;;;;;;
2021/04/07 00:59:56;;;;;;;8.1;6.7;;;1.3;99.9;;;;;;;;;
2021/04/07 01:00:02;;;;;;;8.1;6.7;;;1.3;99.9;;;;;;;;;
2021/04/07 01:00:06;;;;;;;8.1;6.7;;;1.3;99.9;;;;;;;;;
2021/04/07 01:00:16;;;;;;;8.1;6.7;;;1.3;99.9;;;;;;;;;
2021/04/07 01:00:27;;;;;;;8.1;6.7;;;1.3;99.9;;;;;;;;;
2021/04/07 01:00:42;;;;;;;11.1;5.9;;;1.3;99.9;;;;;;;;;
2021/04/07 01:00:52;;;;;;;11.1;5.9;;;1.3;99.9;;;;;;;;;
2021/04/07 01:01:02;;;;;;;11.1;5.9;;;1.3;99.9;;;;;;;;;
2021/04/07 01:01:07;;;;;;;11.1;5.9;;;1.3;99.9;;;;;;;;;
2021/04/07 01:01:13;;;;;;;11.1;5.9;;;1.3;99.9;;;;;;;;;
2021/04/07 01:01:28;;;;;;;11.1;5.9;;;1.3;99.9;;;;;;;;;
2021/04/07 01:01:38;;;;;;;7.67;6.17;;;1.3;99.9;;;;;;;;;
2021/04/07 01:01:54;;;;;;;7.67;6.17;;;1.3;99.9;;;;;;;;;
2021/04/07 01:02:01;;;;;;;7.67;6.17;;;1.3;99.9;;;;;;;;;
2021/04/07 01:02:09;;;;;;;7.67;6.17;;;1.3;99.9;;;;;;;;;
2021/04/07 01:02:14;;;;;;;7.67;6.17;;;1.3;99.9;;;;;;;;;
2021/04/07 01:02:29;;;;;;;7.67;6.17;;;1.3;99.9;;;;;;;;;
2021/04/07 01:02:40;;;;;;;11.23;6.63;;;1.2;99.9;;;;;;;;;
2021/04/07 01:02:55;;;;;;;11.23;6.63;;;1.2;99.9;;;;;;;;;
2021/04/07 01:03:02;;;;;;;11.23;6.63;;;1.2;99.9;;;;;;;;;
2021/04/07 01:03:05;;;;;;;11.23;6.63;;;1.2;99.9;;;;;;;;;
2021/04/07 01:03:16;;;;;;;11.23;6.63;;;1.2;99.9;;;;;;;;;
2021/04/07 01:03:26;;;;;;;11.23;6.63;;;1.2;99.9;;;;;;;;;
2021/04/07 01:03:41;;;;;;;9.47;6.8;;;1.2;99.9;;;;;;;;;
2021/04/07 01:03:51;;;;;;;9.47;6.8;;;1.2;99.9;;;;;;;;;
2021/04/07 01:04:02;;;;;;;9.47;6.8;;;1.2;99.9;;;;;;;;;
2021/04/07 01:04:07;;;;;;;9.47;6.8;;;1.2;99.9;;;;;;;;;
2021/04/07 01:04:12;;;;;;;9.47;6.8;;;1.2;99.9;;;;;;;;;
2021/04/07 01:04:27;;;;;;;9.47;6.8;;;1.2;99.9;;;;;;;;;
2021/04/07 01:04:43;;;;;;;14.7;7.07;;;1.1;99.9;;;;;;;;;
2021/04/07 01:04:53;;;;;;;14.7;7.07;;;1.1;99.9;;;;;;;;;
2021/04/07 01:05:02;;;;;;;14.7;7.07;;;1.1;99.9;;;;;;;;;
2021/04/07 01:05:08;;;;;;;14.7;7.07;;;1.1;99.9;;;;;;;;;
2021/04/07 01:05:13;;;;;;;14.7;7.07;;;1.1;99.9;;;;;;;;;
2021/04/07 01:05:29;;;;;;;14.7;7.07;;;1.1;99.9;;;;;;;;;
2021/04/07 01:05:39;;;;;;;12.97;7.17;;;1.1;99.9;;;;;;;;;
2021/04/07 01:05:54;;;;;;;12.97;7.17;;;1.1;99.9;;;;;;;;;
2021/04/07 01:06:02;;;;;;;12.97;7.17;;;1.1;99.9;;;;;;;;;
2021/04/07 01:06:04;;;;;;;12.97;7.17;;;1.1;99.9;;;;;;;;;
2021/04/07 01:06:15;;;;;;;12.97;7.17;;;1.1;99.9;;;;;;;;;
2021/04/07 01:06:26;;;;;;;12.97;7.17;;;1.1;99.9;;;;;;;;;
2021/04/07 01:06:40;;;;;;;12.37;8.3;;;1.1;99.9;;;;;;;;;
2021/04/07 01:06:56;;;;;;;12.37;8.3;;;1.1;99.9;;;;;;;;;
2021/04/07 01:07:02;;;;;;;12.37;8.3;;;1.1;99.9;;;;;;;;;
2021/04/07 01:07:06;;;;;;;12.37;8.3;;;1.1;99.9;;;;;;;;;
2021/04/07 01:07:16;;;;;;;12.37;8.3;;;1.1;99.9;;;;;;;;;
2021/04/07 01:07:26;;;;;;;12.37;8.3;;;1.1;99.9;;;;;;;;;
2021/04/07 01:07:42;;;;;;;10.77;7.83;;;1.2;99.9;;;;;;;;;
2021/04/07 01:07:52;;;;;;;10.77;7.83;;;1.2;99.9;;;;;;;;;
2021/04/07 01:08:02;;;;;;;10.77;7.83;;;1.2;99.9;;;;;;;;;
2021/04/07 01:08:07;;;;;;;10.77;7.83;;;1.2;99.9;;;;;;;;;
2021/04/07 01:08:13;;;;;;;10.77;7.83;;;1.2;99.9;;;;;;;;;
2021/04/07 01:08:28;;;;;;;10.77;7.83;;;1.2;99.9;;;;;;;;;
2021/04/07 01:08:38;;;;;;;12.1;8.37;;;1.3;99.9;;;;;;;;;
2021/04/07 01:08:53;;;;;;;12.1;8.37;;;1.3;99.9;;;;;;;;;
2021/04/07 01:09:02;;;;;;;12.1;8.37;;;1.3;99.9;;;;;;;;;
2021/04/07 01:09:09;;;;;;;12.1;8.37;;;1.3;99.9;;;;;;;;;
2021/04/07 01:09:14;;;;;;;12.1;8.37;;;1.3;99.9;;;;;;;;;
2021/04/07 01:09:29;;;;;;;12.1;8.37;;;1.3;99.9;;;;;;;;;
2021/04/07 01:09:40;;;;;;;13.3;8.2;;;1.3;99.9;;;;;;;;;
2021/04/07 01:09:55;;;;;;;13.3;8.2;;;1.3;99.9;;;;;;;;;
2021/04/07 01:10:02;;;;;;;13.3;8.2;;;1.3;99.9;;;;;;;;;
2021/04/07 01:10:05;;;;;;;13.3;8.2;;;1.3;99.9;;;;;;;;;
2021/04/07 01:10:16;;;;;;;13.3;8.2;;;1.3;99.9;;;;;;;;;
2021/04/07 01:10:26;;;;;;;13.3;8.2;;;1.3;99.9;;;;;;;;;
2021/04/07 01:10:41;;;;;;;14.47;8.53;;;1.3;99.9;;;;;;;;;
2021/04/07 01:10:52;;;;;;;14.47;8.53;;;1.3;99.9;;;;;;;;;
2021/04/07 01:11:02;;;;;;;14.47;8.53;;;1.3;99.9;;;;;;;;;
2021/04/07 01:11:07;;;;;;;14.47;8.53;;;1.3;99.9;;;;;;;;;
2021/04/07 01:11:17;;;;;;;14.47;8.53;;;1.3;99.9;;;;;;;;;
2021/04/07 01:11:27;;;;;;;14.47;8.53;;;1.3;99.9;;;;;;;;;
2021/04/07 01:11:42;;;;;;;14.47;8.47;;;1.4;99.9;;;;;;;;;
2021/04/07 01:11:53;;;;;;;14.47;8.47;;;1.4;99.9;;;;;;;;;
2021/04/07 01:12:02;;;;;;;14.47;8.47;;;1.4;99.9;;;;;;;;;
2021/04/07 01:12:08;;;;;;;14.47;8.47;;;1.4;99.9;;;;;;;;;
2021/04/07 01:12:18;;;;;;;14.47;8.47;;;1.4;99.9;;;;;;;;;
2021/04/07 01:12:28;;;;;;;14.47;8.47;;;1.4;99.9;;;;;;;;;
2021/04/07 01:12:39;;;;;;;13.33;8.77;;;1.4;99.9;;;;;;;;;
2021/04/07 01:12:54;;;;;;;13.33;8.77;;;1.4;99.9;;;;;;;;;
2021/04/07 01:13:02;;;;;;;13.33;8.77;;;1.4;99.9;;;;;;;;;
2021/04/07 01:13:04;;;;;;;13.33;8.77;;;1.4;99.9;;;;;;;;;
2021/04/07 01:13:15;;;;;;;13.33;8.77;;;1.4;99.9;;;;;;;;;
2021/04/07 01:13:30;;;;;;;13.33;8.77;;;1.4;99.9;;;;;;;;;
2021/04/07 01:13:40;;;;;;;16.37;8.67;;;1.5;99.9;;;;;;;;;
2021/04/07 01:13:56;;;;;;;16.37;8.67;;;1.5;99.9;;;;;;;;;
2021/04/07 01:14:01;;;;;;;16.37;8.67;;;1.5;99.9;;;;;;;;;
2021/04/07 01:14:06;;;;;;;16.37;8.67;;;1.5;99.9;;;;;;;;;
2021/04/07 01:14:16;;;;;;;16.37;8.67;;;1.5;99.9;;;;;;;;;
2021/04/07 01:14:31;;;;;;;16.37;8.67;;;1.5;99.9;;;;;;;;;
2021/04/07 01:14:42;;;;;;;12.47;8.77;;;1.5;99.9;;;;;;;;;
2021/04/07 01:14:52;;;;;;;12.47;8.77;;;1.5;99.9;;;;;;;;;
2021/04/07 01:15:02;;;;;;;12.47;8.77;;;1.5;99.9;;;;;;;;;
2021/04/07 01:15:07;;;;;;;12.47;8.77;;;1.5;99.9;;;;;;;;;
2021/04/07 01:15:12;;;;;;;12.47;8.77;;;1.5;99.9;;;;;;;;;
2021/04/07 01:15:28;;;;;;;12.47;8.77;;;1.5;99.9;;;;;;;;;
2021/04/07 01:15:43;;;;;;;12.63;9.1;;;1.5;99.9;;;;;;;;;
2021/04/07 01:15:53;;;;;;;12.63;9.1;;;1.5;99.9;;;;;;;;;
2021/04/07 01:16:02;;;;;;;12.63;9.1;;;1.5;99.9;;;;;;;;;
2021/04/07 01:16:09;;;;;;;12.63;9.1;;;1.5;99.9;;;;;;;;;
2021/04/07 01:16:14;;;;;;;12.63;9.1;;;1.5;99.9;;;;;;;;;
2021/04/07 01:16:29;;;;;;;12.63;9.1;;;1.5;99.9;;;;;;;;;
2021/04/07 01:16:44;;;;;;;14.87;9.27;;;1.5;99.9;;;;;;;;;
2021/04/07 01:16:55;;;;;;;14.87;9.27;;;1.5;99.9;;;;;;;;;
2021/04/07 01:17:01;;;;;;;14.87;9.27;;;1.5;99.9;;;;;;;;;
2021/04/07 01:17:05;;;;;;;14.87;9.27;;;1.5;99.9;;;;;;;;;